Time;durP1;ratioP1;P1;durP2;ratioP2;P2;SDS_P1;SDS_P2;PMS_P1;PMS_P2;Temp;Humidity;BMP_temperature;BMP_pressure;BME280_temperature;BME280_humidity;BME280_pressure;Samples;Min_cycle;Max_cycle;Signal;HPM_P1;HPM_P2
2022/01/11 00:01:07;;;;;;;16.97;14.13;;;;;;;;;;5074544;28;20453;-57
2022/01/11 00:03:36;;;;;;;19.57;13.90;;;;;;;;;;5074702;28;20430;-59
2022/01/11 00:06:18;;;;;;;14.43;12.93;;;;;;;;;;5074557;28;20429;-58
2022/01/11 00:08:46;;;;;;;15.97;13.90;;;;;;;;;;5074555;28;20784;-59
2022/01/11 00:11:12;;;;;;;15.80;14.10;;;;;;;;;;5074126;28;20478;-59
2022/01/11 00:13:39;;;;;;;15.80;13.23;;;;;;;;;;5074351;28;20529;-59
2022/01/11 00:16:06;;;;;;;17.97;14.40;;;;;;;;;;5074346;28;20507;-60
2022/01/11 00:18:32;;;;;;;27.13;15.63;;;;;;;;;;5074470;28;20473;-58
2022/01/11 00:20:58;;;;;;;19.97;15.43;;;;;;;;;;5074198;28;20464;-60
2022/01/11 00:25:53;;;;;;;17.07;14.00;;;;;;;;;;5074326;28;20942;-59
2022/01/11 00:28:20;;;;;;;15.07;12.90;;;;;;;;;;5072464;28;20512;-61
2022/01/11 00:30:47;;;;;;;32.60;15.43;;;;;;;;;;5073146;28;20429;-60
2022/01/11 00:33:18;;;;;;;18.17;14.73;;;;;;;;;;5074142;28;20433;-61
2022/01/11 00:35:49;;;;;;;16.47;13.73;;;;;;;;;;5074108;28;20430;-61
2022/01/11 00:38:16;;;;;;;17.10;14.63;;;;;;;;;;5073594;28;20936;-61
2022/01/11 00:40:46;;;;;;;45.60;16.30;;;;;;;;;;5073989;28;20436;-61
2022/01/11 00:43:15;;;;;;;20.93;15.23;;;;;;;;;;5073746;28;20442;-62
2022/01/11 00:45:41;;;;;;;73.90;18.60;;;;;;;;;;5073957;28;20514;-62
2022/01/11 00:48:07;;;;;;;19.43;14.43;;;;;;;;;;5073742;28;20440;-61
2022/01/11 00:50:33;;;;;;;45.77;16.50;;;;;;;;;;5073983;28;20442;-61
2022/01/11 00:52:59;;;;;;;23.30;15.00;;;;;;;;;;5073642;28;20195;-60
2022/01/11 00:55:25;;;;;;;56.80;16.70;;;;;;;;;;5073686;28;20215;-61
2022/01/11 00:57:51;;;;;;;23.10;16.47;;;;;;;;;;5072151;28;20854;-61
2022/01/11 01:00:19;;;;;;;33.40;16.17;;;;;;;;;;5073739;28;20429;-60
2022/01/11 01:02:45;;;;;;;50.40;17.00;;;;;;;;;;5073625;28;20504;-61
2022/01/11 01:05:11;;;;;;;70.73;17.77;;;;;;;;;;5073486;28;20452;-61
2022/01/11 01:07:37;;;;;;;41.63;16.63;;;;;;;;;;5073416;28;20465;-60
2022/01/11 01:10:08;;;;;;;17.73;15.80;;;;;;;;;;5073446;28;20458;-60
2022/01/11 01:12:34;;;;;;;19.93;15.67;;;;;;;;;;5073061;28;20512;-60
2022/01/11 01:15:00;;;;;;;26.43;15.67;;;;;;;;;;5073137;28;20457;-61
2022/01/11 01:17:27;;;;;;;31.70;15.53;;;;;;;;;;5073325;28;20536;-60
2022/01/11 01:19:53;;;;;;;25.17;14.97;;;;;;;;;;5073066;28;20223;-60
2022/01/11 01:22:20;;;;;;;29.13;16.33;;;;;;;;;;5073147;28;20426;-60
2022/01/11 01:24:47;;;;;;;28.10;16.17;;;;;;;;;;5073278;28;20487;-60
2022/01/11 01:27:13;;;;;;;54.47;18.00;;;;;;;;;;5072870;28;20505;-60
2022/01/11 01:29:40;;;;;;;20.73;15.50;;;;;;;;;;5072985;28;20429;-61
2022/01/11 01:32:07;;;;;;;54.30;16.70;;;;;;;;;;5072778;28;20456;-60
2022/01/11 01:34:34;;;;;;;18.73;15.70;;;;;;;;;;5073005;28;20445;-61
2022/01/11 01:37:00;;;;;;;21.83;15.43;;;;;;;;;;5072862;28;20441;-60
2022/01/11 01:39:27;;;;;;;24.97;16.93;;;;;;;;;;5072797;28;20486;-61
2022/01/11 01:41:53;;;;;;;16.27;14.57;;;;;;;;;;5072419;28;20837;-60
2022/01/11 01:44:19;;;;;;;24.20;16.13;;;;;;;;;;5072862;28;20438;-59
2022/01/11 01:46:45;;;;;;;17.43;15.60;;;;;;;;;;5072742;28;20434;-59
2022/01/11 01:49:17;;;;;;;55.60;17.93;;;;;;;;;;5072519;28;20434;-60
2022/01/11 01:51:45;;;;;;;31.50;16.97;;;;;;;;;;5072510;28;20944;-60
2022/01/11 01:54:11;;;;;;;20.60;17.43;;;;;;;;;;5072363;28;20458;-60
2022/01/11 01:56:37;;;;;;;25.33;16.90;;;;;;;;;;5072454;28;20437;-60
2022/01/11 01:59:03;;;;;;;19.90;16.87;;;;;;;;;;5071963;28;20478;-60
2022/01/11 02:01:32;;;;;;;18.83;16.70;;;;;;;;;;5072356;28;20799;-60
2022/01/11 02:03:58;;;;;;;19.47;16.27;;;;;;;;;;5072335;28;20448;-60
2022/01/11 02:06:24;;;;;;;21.73;17.53;;;;;;;;;;5072148;28;20857;-59
2022/01/11 02:08:51;;;;;;;29.83;16.43;;;;;;;;;;5072137;28;20836;-60
2022/01/11 02:11:18;;;;;;;18.73;16.73;;;;;;;;;;5072028;28;20492;-60
2022/01/11 02:13:45;;;;;;;20.27;17.00;;;;;;;;;;5072334;28;20495;-61
2022/01/11 02:16:12;;;;;;;20.17;16.27;;;;;;;;;;5072163;28;20555;-61
2022/01/11 02:18:40;;;;;;;21.03;16.67;;;;;;;;;;5072118;28;20500;-60
2022/01/11 02:21:08;;;;;;;24.00;16.17;;;;;;;;;;5072047;28;20425;-59
2022/01/11 02:23:34;;;;;;;20.87;16.00;;;;;;;;;;5071833;28;20956;-60
2022/01/11 02:26:00;;;;;;;20.47;15.80;;;;;;;;;;5071843;28;20430;-59
2022/01/11 02:28:27;;;;;;;21.53;16.23;;;;;;;;;;5072070;28;20434;-60
2022/01/11 02:30:54;;;;;;;25.07;15.80;;;;;;;;;;5071906;28;20422;-60
2022/01/11 02:33:47;;;;;;;19.53;16.20;;;;;;;;;;5071951;28;20541;-59
2022/01/11 02:36:18;;;;;;;21.47;15.67;;;;;;;;;;5035967;28;20617;-59
2022/01/11 02:39:10;;;;;;;19.47;14.90;;;;;;;;;;5071832;28;20473;-60
2022/01/11 02:41:48;;;;;;;19.80;15.50;;;;;;;;;;5061781;28;20449;-61
2022/01/11 02:44:14;;;;;;;17.93;14.07;;;;;;;;;;5071855;28;20546;-61
2022/01/11 02:46:40;;;;;;;22.63;15.00;;;;;;;;;;5071834;28;20461;-59
2022/01/11 02:49:06;;;;;;;17.70;14.60;;;;;;;;;;5071709;28;20198;-59
2022/01/11 02:51:33;;;;;;;19.97;15.23;;;;;;;;;;5072007;28;20199;-59
2022/01/11 02:54:00;;;;;;;19.83;14.80;;;;;;;;;;5073418;28;20219;-59
2022/01/11 02:56:26;;;;;;;15.93;13.33;;;;;;;;;;5075808;28;20516;-59
2022/01/11 02:58:53;;;;;;;16.10;13.97;;;;;;;;;;5075854;28;20497;-59
2022/01/11 03:01:19;;;;;;;14.93;12.87;;;;;;;;;;5075904;28;20516;-59
2022/01/11 03:03:48;;;;;;;15.47;13.77;;;;;;;;;;5075861;28;20450;-59
2022/01/11 03:06:14;;;;;;;16.50;13.43;;;;;;;;;;5075785;28;20433;-60
2022/01/11 03:08:42;;;;;;;14.87;13.23;;;;;;;;;;5075804;28;20503;-59
2022/01/11 03:11:08;;;;;;;16.30;13.27;;;;;;;;;;5075340;28;20528;-60
2022/01/11 03:13:35;;;;;;;14.07;12.57;;;;;;;;;;5075265;28;20845;-60
2022/01/11 03:16:01;;;;;;;17.83;13.33;;;;;;;;;;5075453;28;20441;-60
2022/01/11 03:18:27;;;;;;;17.50;14.37;;;;;;;;;;5075441;28;20579;-59
2022/01/11 03:20:53;;;;;;;15.17;12.27;;;;;;;;;;5075801;28;20516;-58
2022/01/11 03:23:20;;;;;;;18.83;14.63;;;;;;;;;;5075452;28;20207;-59
2022/01/11 03:25:48;;;;;;;15.33;12.27;;;;;;;;;;5075422;28;20441;-60
2022/01/11 03:28:14;;;;;;;16.97;13.33;;;;;;;;;;5075320;28;20460;-59
2022/01/11 03:30:40;;;;;;;28.30;13.63;;;;;;;;;;5075351;28;20444;-61
2022/01/11 03:33:08;;;;;;;18.73;13.67;;;;;;;;;;5075249;28;20438;-60
2022/01/11 03:35:35;;;;;;;19.43;14.70;;;;;;;;;;5075311;28;20196;-60
2022/01/11 03:38:01;;;;;;;27.00;15.37;;;;;;;;;;5075117;28;21073;-59
2022/01/11 03:40:27;;;;;;;19.53;15.20;;;;;;;;;;5074983;28;20463;-59
2022/01/11 03:42:54;;;;;;;17.57;15.13;;;;;;;;;;5074991;28;20441;-59
2022/01/11 03:45:21;;;;;;;19.37;15.07;;;;;;;;;;5074943;28;20507;-59
2022/01/11 03:47:48;;;;;;;20.67;15.97;;;;;;;;;;5075126;28;20469;-60
2022/01/11 03:50:14;;;;;;;19.17;16.27;;;;;;;;;;5074931;28;20446;-61
2022/01/11 03:52:40;;;;;;;25.33;17.40;;;;;;;;;;5074820;28;20800;-60
2022/01/11 03:55:12;;;;;;;21.73;15.83;;;;;;;;;;5074793;28;20491;-61
2022/01/11 03:57:39;;;;;;;31.33;16.33;;;;;;;;;;5074819;28;20440;-60
2022/01/11 04:00:11;;;;;;;34.63;15.90;;;;;;;;;;5074684;28;20481;-59
2022/01/11 04:02:37;;;;;;;37.63;17.20;;;;;;;;;;5074606;28;20804;-60
2022/01/11 04:05:03;;;;;;;20.57;15.97;;;;;;;;;;5074766;28;20808;-60
2022/01/11 04:07:29;;;;;;;18.40;15.43;;;;;;;;;;5074568;28;20429;-60
2022/01/11 04:09:56;;;;;;;40.80;16.17;;;;;;;;;;5074609;28;20434;-60
2022/01/11 04:12:22;;;;;;;40.17;15.80;;;;;;;;;;5073837;28;20476;-60
2022/01/11 04:14:48;;;;;;;20.10;15.40;;;;;;;;;;5074613;28;20457;-59
2022/01/11 04:17:16;;;;;;;39.73;15.67;;;;;;;;;;5074085;28;20426;-60
2022/01/11 04:19:42;;;;;;;31.53;15.57;;;;;;;;;;5074418;28;20492;-60
2022/01/11 04:22:17;;;;;;;20.00;14.83;;;;;;;;;;5074358;28;20425;-59
2022/01/11 04:24:43;;;;;;;21.10;14.90;;;;;;;;;;5074394;28;20199;-60
2022/01/11 04:27:09;;;;;;;21.67;15.57;;;;;;;;;;5074225;28;20456;-60
2022/01/11 04:29:35;;;;;;;20.67;15.47;;;;;;;;;;5074168;28;20339;-60
2022/01/11 04:32:01;;;;;;;18.90;15.27;;;;;;;;;;5074359;28;20819;-60
2022/01/11 04:34:28;;;;;;;20.37;16.20;;;;;;;;;;5074011;28;20442;-60
2022/01/11 04:36:55;;;;;;;43.50;16.97;;;;;;;;;;5074117;28;20495;-60
2022/01/11 04:39:22;;;;;;;31.60;16.50;;;;;;;;;;5073895;28;20834;-61
2022/01/11 04:41:48;;;;;;;21.03;16.00;;;;;;;;;;5074054;28;20472;-61
2022/01/11 04:44:14;;;;;;;20.97;16.10;;;;;;;;;;5073936;28;20503;-60
2022/01/11 04:46:40;;;;;;;21.10;16.57;;;;;;;;;;5073971;28;20437;-60
2022/01/11 04:49:07;;;;;;;21.47;15.40;;;;;;;;;;5073881;28;20426;-59
2022/01/11 04:51:35;;;;;;;25.87;16.83;;;;;;;;;;5073778;28;20426;-60
2022/01/11 04:54:01;;;;;;;24.27;16.70;;;;;;;;;;5073826;28;20461;-60
2022/01/11 04:56:29;;;;;;;21.33;15.57;;;;;;;;;;5073627;28;20534;-59
2022/01/11 04:58:58;;;;;;;22.07;16.53;;;;;;;;;;5069500;28;20485;-59
2022/01/11 05:01:24;;;;;;;21.63;16.73;;;;;;;;;;5073528;28;20446;-60
2022/01/11 05:03:50;;;;;;;22.03;16.03;;;;;;;;;;5073626;28;20475;-61
2022/01/11 05:06:16;;;;;;;25.03;16.57;;;;;;;;;;5073607;28;20426;-60
2022/01/11 05:08:44;;;;;;;23.90;16.80;;;;;;;;;;5073639;28;20848;-60
2022/01/11 05:11:10;;;;;;;23.20;17.50;;;;;;;;;;5073121;28;20481;-60
2022/01/11 05:13:36;;;;;;;41.10;17.93;;;;;;;;;;5073293;28;20446;-59
2022/01/11 05:16:09;;;;;;;23.27;17.97;;;;;;;;;;5073067;28;20433;-60
2022/01/11 05:18:36;;;;;;;21.30;16.40;;;;;;;;;;5073195;28;21026;-60
2022/01/11 05:21:02;;;;;;;51.90;18.27;;;;;;;;;;5073299;28;20460;-60
2022/01/11 05:23:28;;;;;;;21.50;15.23;;;;;;;;;;5072842;28;20442;-60
2022/01/11 05:25:56;;;;;;;29.97;17.83;;;;;;;;;;5073096;28;20437;-60
2022/01/11 05:28:22;;;;;;;57.07;17.70;;;;;;;;;;5072979;28;20196;-59
2022/01/11 05:30:48;;;;;;;24.03;17.23;;;;;;;;;;5073165;28;20442;-59
2022/01/11 05:33:14;;;;;;;51.87;18.93;;;;;;;;;;5072849;28;20442;-59
2022/01/11 05:35:40;;;;;;;30.00;17.50;;;;;;;;;;5072944;28;20203;-59
2022/01/11 05:38:06;;;;;;;32.03;16.20;;;;;;;;;;5072627;28;20712;-59
2022/01/11 05:40:32;;;;;;;64.60;17.47;;;;;;;;;;5072647;28;20485;-59
2022/01/11 05:43:00;;;;;;;26.73;15.40;;;;;;;;;;5072643;28;20429;-59
2022/01/11 05:45:26;;;;;;;21.27;15.90;;;;;;;;;;5072560;28;20495;-61
2022/01/11 05:47:55;;;;;;;26.67;16.30;;;;;;;;;;5072809;28;20438;-60
2022/01/11 05:50:22;;;;;;;23.43;16.17;;;;;;;;;;5072703;28;20213;-60
2022/01/11 05:52:49;;;;;;;23.10;15.30;;;;;;;;;;5072742;28;20426;-60
2022/01/11 05:55:15;;;;;;;24.70;15.57;;;;;;;;;;5072423;28;20456;-60
2022/01/11 05:57:41;;;;;;;22.70;15.97;;;;;;;;;;5072462;28;20438;-60
2022/01/11 06:00:11;;;;;;;20.50;15.17;;;;;;;;;;5072453;28;20580;-59
2022/01/11 06:02:37;;;;;;;19.83;15.33;;;;;;;;;;5072366;28;20464;-60
2022/01/11 06:05:03;;;;;;;43.43;21.40;;;;;;;;;;5072654;28;20434;-60
2022/01/11 06:07:29;;;;;;;35.93;16.27;;;;;;;;;;5072175;28;20606;-60
2022/01/11 06:09:55;;;;;;;19.50;15.33;;;;;;;;;;5072288;28;20435;-59
2022/01/11 06:12:21;;;;;;;20.53;16.37;;;;;;;;;;5071862;28;20231;-59
2022/01/11 06:14:47;;;;;;;25.53;17.30;;;;;;;;;;5072288;28;20202;-60
2022/01/11 06:17:14;;;;;;;19.87;16.00;;;;;;;;;;5072106;28;20187;-60
2022/01/11 06:19:40;;;;;;;21.63;16.23;;;;;;;;;;5071573;28;20609;-60
2022/01/11 06:22:06;;;;;;;18.07;15.90;;;;;;;;;;5071825;28;20434;-60
2022/01/11 06:24:32;;;;;;;23.50;16.90;;;;;;;;;;5072045;28;20207;-61
2022/01/11 06:26:58;;;;;;;39.90;16.77;;;;;;;;;;5071860;28;20200;-60
2022/01/11 06:29:24;;;;;;;21.43;17.43;;;;;;;;;;5070976;28;20611;-61
2022/01/11 06:31:50;;;;;;;18.50;15.30;;;;;;;;;;5071923;28;20199;-60
2022/01/11 06:34:18;;;;;;;28.27;17.47;;;;;;;;;;5071866;28;20677;-60
2022/01/11 06:36:44;;;;;;;21.53;17.43;;;;;;;;;;5071562;28;20525;-59
2022/01/11 06:39:10;;;;;;;24.47;16.97;;;;;;;;;;5071418;28;20569;-59
2022/01/11 06:41:36;;;;;;;27.60;16.57;;;;;;;;;;5071704;28;20670;-60
2022/01/11 06:44:02;;;;;;;31.90;18.07;;;;;;;;;;5071926;28;20191;-59
2022/01/11 06:46:28;;;;;;;23.13;16.43;;;;;;;;;;5071796;28;20614;-58
2022/01/11 06:48:57;;;;;;;21.50;16.97;;;;;;;;;;5071864;28;20521;-58
2022/01/11 06:51:24;;;;;;;23.23;16.80;;;;;;;;;;5071504;28;20833;-59
2022/01/11 06:53:50;;;;;;;33.73;16.73;;;;;;;;;;5071800;28;20462;-60
2022/01/11 06:56:17;;;;;;;22.17;16.87;;;;;;;;;;5071727;28;20456;-60
2022/01/11 06:58:43;;;;;;;22.50;15.80;;;;;;;;;;5071809;28;20470;-60
2022/01/11 07:01:10;;;;;;;22.07;17.30;;;;;;;;;;5064645;28;20534;-59
2022/01/11 07:03:36;;;;;;;23.73;16.23;;;;;;;;;;5051567;28;20443;-60
2022/01/11 07:06:03;;;;;;;22.37;15.47;;;;;;;;;;5060249;28;20434;-60
2022/01/11 07:08:30;;;;;;;23.50;16.37;;;;;;;;;;5071540;28;20278;-60
2022/01/11 07:10:56;;;;;;;21.67;15.70;;;;;;;;;;5066019;28;20522;-61
2022/01/11 07:13:22;;;;;;;20.23;15.50;;;;;;;;;;5071250;28;20936;-60
2022/01/11 07:15:48;;;;;;;33.97;15.20;;;;;;;;;;5071211;28;20487;-60
2022/01/11 07:18:15;;;;;;;17.67;14.50;;;;;;;;;;5071287;28;20503;-60
2022/01/11 07:20:42;;;;;;;16.97;14.50;;;;;;;;;;5071198;28;20441;-61
2022/01/11 07:23:08;;;;;;;20.30;15.20;;;;;;;;;;5071165;28;20940;-60
2022/01/11 07:25:36;;;;;;;17.77;14.13;;;;;;;;;;5071227;28;20441;-60
2022/01/11 07:28:02;;;;;;;48.67;15.30;;;;;;;;;;5071463;28;20488;-61
2022/01/11 07:30:28;;;;;;;17.33;14.57;;;;;;;;;;5071165;28;20523;-61
2022/01/11 07:32:54;;;;;;;20.27;14.57;;;;;;;;;;5071106;28;20911;-60
2022/01/11 07:35:23;;;;;;;19.90;15.00;;;;;;;;;;5071171;28;20426;-59
2022/01/11 07:37:49;;;;;;;19.93;14.80;;;;;;;;;;5071359;28;20286;-61
2022/01/11 07:40:15;;;;;;;18.63;15.20;;;;;;;;;;5072687;28;20553;-61
2022/01/11 07:42:43;;;;;;;20.60;14.07;;;;;;;;;;5074752;28;20438;-61
2022/01/11 07:45:09;;;;;;;18.13;14.40;;;;;;;;;;5074894;28;20473;-61
2022/01/11 07:47:36;;;;;;;17.57;14.93;;;;;;;;;;5074545;28;20433;-60
2022/01/11 07:50:02;;;;;;;24.07;15.60;;;;;;;;;;5074858;28;20524;-60
2022/01/11 07:52:28;;;;;;;21.53;15.00;;;;;;;;;;5074388;28;20448;-61
2022/01/11 07:54:54;;;;;;;16.10;13.83;;;;;;;;;;5074479;28;20966;-60
2022/01/11 07:57:20;;;;;;;16.97;13.50;;;;;;;;;;5074695;28;20206;-59
2022/01/11 07:59:47;;;;;;;25.60;14.37;;;;;;;;;;5074474;28;20587;-59
2022/01/11 08:02:13;;;;;;;16.17;13.50;;;;;;;;;;5074612;28;20439;-60
2022/01/11 08:04:39;;;;;;;60.73;16.20;;;;;;;;;;5074321;28;20830;-60
2022/01/11 08:07:05;;;;;;;44.87;13.67;;;;;;;;;;5074566;28;20429;-60
2022/01/11 08:09:31;;;;;;;16.13;13.53;;;;;;;;;;5073063;28;20468;-60
2022/01/11 08:11:58;;;;;;;22.60;16.63;;;;;;;;;;5074332;28;20232;-60
2022/01/11 08:14:25;;;;;;;21.10;15.30;;;;;;;;;;5074334;28;20223;-60
2022/01/11 08:16:52;;;;;;;38.03;15.70;;;;;;;;;;5074136;28;20928;-60
2022/01/11 08:19:24;;;;;;;35.50;16.87;;;;;;;;;;5074290;28;20968;-59
2022/01/11 08:21:50;;;;;;;42.73;15.67;;;;;;;;;;5074230;28;20434;-59
2022/01/11 08:24:16;;;;;;;24.57;14.77;;;;;;;;;;5074268;28;20496;-60
2022/01/11 08:26:42;;;;;;;34.37;15.67;;;;;;;;;;5073925;28;20473;-59
2022/01/11 08:29:08;;;;;;;24.63;14.77;;;;;;;;;;5074030;28;20195;-60
2022/01/11 08:31:34;;;;;;;19.30;15.07;;;;;;;;;;5073770;28;20236;-60
2022/01/11 08:34:02;;;;;;;18.77;14.83;;;;;;;;;;5064831;28;20454;-59
2022/01/11 08:36:27;;;;;;;21.40;14.40;;;;;;;;;;5072098;28;20446;-60
2022/01/11 08:38:53;;;;;;;19.77;14.93;;;;;;;;;;5073574;28;20480;-60
2022/01/11 08:41:22;;;;;;;21.93;14.23;;;;;;;;;;5073904;28;20200;-60
2022/01/11 08:44:00;;;;;;;26.47;16.13;;;;;;;;;;5073788;28;20286;-60
2022/01/11 08:46:26;;;;;;;17.93;13.37;;;;;;;;;;5073646;28;21230;-60
2022/01/11 08:48:52;;;;;;;20.60;14.23;;;;;;;;;;5073560;28;20433;-59
2022/01/11 08:51:19;;;;;;;22.03;14.27;;;;;;;;;;5072844;28;20208;-59
2022/01/11 08:53:45;;;;;;;19.00;13.43;;;;;;;;;;5073568;28;20462;-59
2022/01/11 08:56:15;;;;;;;20.27;13.33;;;;;;;;;;5073469;28;20465;-60
2022/01/11 08:58:41;;;;;;;26.77;13.07;;;;;;;;;;5073065;28;20677;-60
2022/01/11 09:01:07;;;;;;;84.20;15.87;;;;;;;;;;5068720;28;20525;-57
2022/01/11 09:03:33;;;;;;;17.23;13.03;;;;;;;;;;5058282;28;20287;-59
2022/01/11 09:05:59;;;;;;;15.83;13.17;;;;;;;;;;5053427;28;20431;-61
2022/01/11 09:08:27;;;;;;;23.73;13.23;;;;;;;;;;5053254;28;20438;-61
2022/01/11 09:10:53;;;;;;;24.50;13.93;;;;;;;;;;5052827;28;20439;-58
2022/01/11 09:13:20;;;;;;;16.07;13.80;;;;;;;;;;5053071;28;21001;-58
2022/01/11 09:15:46;;;;;;;34.13;14.83;;;;;;;;;;5053038;28;20461;-59
2022/01/11 09:18:12;;;;;;;23.60;13.20;;;;;;;;;;5053229;28;20858;-59
2022/01/11 09:20:38;;;;;;;30.03;12.20;;;;;;;;;;5053033;28;20537;-59
2022/01/11 09:23:05;;;;;;;25.80;13.57;;;;;;;;;;5053018;28;20481;-59
2022/01/11 09:25:33;;;;;;;70.43;14.50;;;;;;;;;;5052981;28;20890;-58
2022/01/11 09:27:59;;;;;;;34.53;13.53;;;;;;;;;;5050485;28;20466;-59
2022/01/11 09:30:25;;;;;;;72.50;14.47;;;;;;;;;;5052536;28;20851;-58
2022/01/11 09:32:51;;;;;;;34.40;15.10;;;;;;;;;;5052585;28;20220;-58
2022/01/11 09:35:17;;;;;;;58.83;14.63;;;;;;;;;;5052720;28;20446;-58
2022/01/11 09:37:46;;;;;;;29.20;13.00;;;;;;;;;;5052545;28;20500;-58
2022/01/11 09:40:12;;;;;;;24.23;13.77;;;;;;;;;;5052473;28;20474;-59
2022/01/11 09:42:39;;;;;;;78.97;15.33;;;;;;;;;;5052384;28;20439;-58
2022/01/11 09:45:06;;;;;;;17.70;12.33;;;;;;;;;;5052504;28;20447;-58
2022/01/11 09:47:32;;;;;;;13.17;11.43;;;;;;;;;;5052396;28;20435;-58
2022/01/11 09:49:58;;;;;;;14.67;12.10;;;;;;;;;;5052274;28;20929;-58
2022/01/11 09:52:25;;;;;;;17.47;11.20;;;;;;;;;;5052297;28;20443;-58
2022/01/11 09:54:51;;;;;;;17.60;10.73;;;;;;;;;;5052002;28;20462;-59
2022/01/11 09:57:17;;;;;;;18.70;11.23;;;;;;;;;;5052449;28;20430;-59
2022/01/11 09:59:44;;;;;;;13.03;10.83;;;;;;;;;;5052016;28;20690;-59
2022/01/11 10:02:12;;;;;;;52.37;11.60;;;;;;;;;;5052118;28;20204;-59
2022/01/11 10:04:38;;;;;;;12.70;10.63;;;;;;;;;;5052006;28;20493;-58
2022/01/11 10:07:05;;;;;;;17.17;10.63;;;;;;;;;;5052510;28;20431;-59
2022/01/11 10:09:32;;;;;;;27.73;11.47;;;;;;;;;;5052034;28;20435;-59
2022/01/11 10:11:59;;;;;;;14.77;10.03;;;;;;;;;;5051728;28;20808;-59
2022/01/11 10:14:31;;;;;;;15.13;10.93;;;;;;;;;;5051939;28;20435;-60
2022/01/11 10:17:06;;;;;;;14.17;10.83;;;;;;;;;;5052038;28;20450;-59
2022/01/11 10:19:32;;;;;;;11.63;10.13;;;;;;;;;;5051691;28;20486;-58
2022/01/11 10:21:58;;;;;;;10.50;9.00;;;;;;;;;;5051978;28;20514;-59
2022/01/11 10:24:25;;;;;;;11.43;8.80;;;;;;;;;;5052005;28;20431;-58
2022/01/11 10:26:53;;;;;;;11.67;8.97;;;;;;;;;;5052034;28;20469;-59
2022/01/11 10:29:24;;;;;;;20.00;9.90;;;;;;;;;;5052057;28;20441;-58
2022/01/11 10:31:50;;;;;;;12.33;9.57;;;;;;;;;;5051938;28;20488;-58
2022/01/11 10:34:25;;;;;;;24.07;9.97;;;;;;;;;;5052019;28;20935;-59
2022/01/11 10:37:01;;;;;;;11.60;9.43;;;;;;;;;;5051813;28;20857;-58
2022/01/11 10:39:29;;;;;;;11.53;9.80;;;;;;;;;;5051813;28;20569;-58
2022/01/11 10:41:56;;;;;;;12.27;10.40;;;;;;;;;;5051640;28;20944;-58
2022/01/11 10:44:36;;;;;;;12.97;10.37;;;;;;;;;;5051897;28;20457;-58
2022/01/11 10:47:03;;;;;;;18.43;10.30;;;;;;;;;;5049520;28;20818;-56
2022/01/11 10:49:31;;;;;;;13.80;10.00;;;;;;;;;;5051872;28;20465;-57
2022/01/11 10:52:12;;;;;;;14.03;10.13;;;;;;;;;;5051710;28;20542;-57
2022/01/11 10:54:41;;;;;;;21.17;10.77;;;;;;;;;;5051434;28;20462;-58
2022/01/11 10:57:13;;;;;;;20.60;10.50;;;;;;;;;;5051621;28;20445;-57
2022/01/11 10:59:39;;;;;;;22.73;10.20;;;;;;;;;;5051637;28;20575;-58
2022/01/11 11:02:12;;;;;;;12.47;9.93;;;;;;;;;;5051615;28;20538;-57
2022/01/11 11:04:39;;;;;;;16.93;11.17;;;;;;;;;;5051488;28;20736;-57
2022/01/11 11:07:12;;;;;;;15.70;10.60;;;;;;;;;;5051701;28;20443;-58
2022/01/11 11:09:44;;;;;;;13.20;10.20;;;;;;;;;;5055071;28;20504;-58
2022/01/11 11:12:14;;;;;;;31.57;11.10;;;;;;;;;;5068543;28;20482;-58
2022/01/11 11:14:50;;;;;;;12.53;9.97;;;;;;;;;;5072447;28;20491;-58
2022/01/11 11:17:25;;;;;;;12.73;10.33;;;;;;;;;;5075834;28;20429;-58
2022/01/11 11:19:56;;;;;;;10.87;9.60;;;;;;;;;;5075395;28;20954;-61
2022/01/11 11:22:24;;;;;;;14.93;10.40;;;;;;;;;;5075649;28;20852;-57
2022/01/11 11:24:51;;;;;;;10.20;9.17;;;;;;;;;;5075256;28;20445;-60
2022/01/11 11:27:17;;;;;;;12.10;9.87;;;;;;;;;;5075411;28;20452;-59
2022/01/11 11:29:43;;;;;;;11.63;9.67;;;;;;;;;;5075162;28;20457;-60
2022/01/11 11:32:09;;;;;;;11.23;9.70;;;;;;;;;;5075100;28;20473;-60
2022/01/11 11:34:35;;;;;;;12.00;9.70;;;;;;;;;;5075367;28;20196;-60
2022/01/11 11:37:05;;;;;;;12.20;10.40;;;;;;;;;;5075243;28;20682;-60
2022/01/11 11:39:31;;;;;;;11.97;10.70;;;;;;;;;;5075161;28;20496;-60
2022/01/11 11:41:59;;;;;;;13.30;10.23;;;;;;;;;;5075053;28;20434;-60
2022/01/11 11:44:26;;;;;;;11.13;9.80;;;;;;;;;;5074951;28;20966;-60
2022/01/11 11:46:53;;;;;;;12.60;10.13;;;;;;;;;;5074842;28;20970;-61
2022/01/11 11:49:34;;;;;;;12.10;10.57;;;;;;;;;;5075016;28;20433;-59
2022/01/11 11:52:06;;;;;;;15.70;11.20;;;;;;;;;;5074800;28;20429;-60
2022/01/11 11:54:46;;;;;;;16.00;11.23;;;;;;;;;;5074975;28;20523;-59
2022/01/11 11:57:13;;;;;;;13.20;11.33;;;;;;;;;;5074913;28;20433;-60
2022/01/11 11:59:39;;;;;;;12.87;10.73;;;;;;;;;;5074578;28;20509;-61
2022/01/11 12:02:05;;;;;;;15.00;10.70;;;;;;;;;;5074401;28;20483;-60
2022/01/11 12:04:50;;;;;;;11.87;10.57;;;;;;;;;;5074755;28;20499;-59
2022/01/11 12:07:29;;;;;;;12.57;9.80;;;;;;;;;;5074798;28;20426;-60
2022/01/11 12:09:55;;;;;;;12.73;10.40;;;;;;;;;;5074359;28;20895;-60
2022/01/11 12:12:36;;;;;;;11.37;9.23;;;;;;;;;;5074482;28;20496;-60
2022/01/11 12:15:22;;;;;;;12.10;8.87;;;;;;;;;;5074361;28;20441;-60
2022/01/11 12:17:48;;;;;;;10.43;8.67;;;;;;;;;;5074077;28;20915;-60
2022/01/11 12:20:39;;;;;;;8.73;7.83;;;;;;;;;;5074420;28;20223;-60
2022/01/11 12:23:07;;;;;;;9.93;8.37;;;;;;;;;;5074452;28;20241;-61
2022/01/11 12:25:37;;;;;;;9.43;8.47;;;;;;;;;;5074036;28;20199;-61
2022/01/11 12:28:04;;;;;;;10.20;8.30;;;;;;;;;;5073245;28;20208;-61
2022/01/11 12:30:32;;;;;;;10.77;8.43;;;;;;;;;;5074239;28;20184;-60
2022/01/11 12:33:09;;;;;;;11.20;9.27;;;;;;;;;;5073821;28;20203;-60
2022/01/11 12:35:49;;;;;;;8.97;8.07;;;;;;;;;;5074006;28;20619;-59
2022/01/11 12:38:17;;;;;;;11.80;8.43;;;;;;;;;;5074078;28;20196;-60
2022/01/11 12:40:44;;;;;;;9.00;7.67;;;;;;;;;;5073126;28;20287;-61
2022/01/11 12:43:17;;;;;;;10.20;8.97;;;;;;;;;;5062771;28;20188;-60
2022/01/11 12:46:05;;;;;;;10.57;8.90;;;;;;;;;;5062279;28;20275;-60
2022/01/11 12:48:50;;;;;;;9.10;8.20;;;;;;;;;;5064408;28;20245;-60
2022/01/11 12:51:23;;;;;;;9.40;8.40;;;;;;;;;;5053834;28;20184;-61
2022/01/11 12:53:51;;;;;;;9.80;8.80;;;;;;;;;;5053610;28;20307;-61
2022/01/11 12:56:18;;;;;;;9.13;8.23;;;;;;;;;;5053672;28;20214;-61
2022/01/11 12:58:46;;;;;;;9.90;8.30;;;;;;;;;;5053834;28;20218;-61
2022/01/11 13:01:15;;;;;;;9.43;8.33;;;;;;;;;;5053510;28;20692;-60
2022/01/11 13:03:47;;;;;;;9.40;8.40;;;;;;;;;;5054063;28;20250;-61
2022/01/11 13:06:13;;;;;;;8.87;7.97;;;;;;;;;;5054057;28;20300;-61
2022/01/11 13:08:42;;;;;;;9.97;8.60;;;;;;;;;;5053738;28;20232;-60
2022/01/11 13:11:17;;;;;;;9.83;8.50;;;;;;;;;;5053382;28;20232;-61
2022/01/11 13:13:52;;;;;;;9.93;8.43;;;;;;;;;;5053388;28;20549;-61
2022/01/11 13:16:21;;;;;;;9.33;8.30;;;;;;;;;;5053525;28;20272;-61
2022/01/11 13:18:47;;;;;;;9.93;8.17;;;;;;;;;;5053359;28;20230;-60
2022/01/11 13:21:13;;;;;;;9.73;8.80;;;;;;;;;;5066328;28;20198;-60
2022/01/11 13:24:11;;;;;;;13.57;8.93;;;;;;;;;;5073403;28;20211;-61
2022/01/11 13:26:38;;;;;;;9.90;8.47;;;;;;;;;;5073511;28;20203;-60
2022/01/11 13:29:05;;;;;;;10.07;9.00;;;;;;;;;;5073079;28;20218;-61
2022/01/11 13:31:32;;;;;;;10.43;8.63;;;;;;;;;;5073106;28;20202;-60
2022/01/11 13:34:00;;;;;;;9.80;8.90;;;;;;;;;;5073097;28;20192;-60
2022/01/11 13:36:30;;;;;;;13.43;9.40;;;;;;;;;;5073268;28;20544;-59
2022/01/11 13:38:57;;;;;;;11.70;9.43;;;;;;;;;;5066079;28;20192;-61
2022/01/11 13:41:28;;;;;;;11.47;8.83;;;;;;;;;;5063206;28;20191;-64
2022/01/11 13:43:58;;;;;;;10.77;8.80;;;;;;;;;;5056571;28;20269;-61
2022/01/11 13:46:24;;;;;;;10.50;9.30;;;;;;;;;;5052823;28;20200;-60
2022/01/11 13:48:51;;;;;;;9.57;8.53;;;;;;;;;;5052748;28;20204;-60
2022/01/11 13:51:23;;;;;;;12.07;9.10;;;;;;;;;;5052233;28;20196;-58
2022/01/11 13:53:50;;;;;;;12.10;9.30;;;;;;;;;;5051065;28;20635;-60
2022/01/11 13:56:17;;;;;;;9.90;8.10;;;;;;;;;;5052377;28;20212;-60
2022/01/11 13:58:47;;;;;;;13.00;10.07;;;;;;;;;;5052263;28;20485;-58
2022/01/11 14:01:16;;;;;;;13.17;9.53;;;;;;;;;;5052032;28;20210;-60
2022/01/11 14:03:42;;;;;;;15.27;10.10;;;;;;;;;;5052095;28;20447;-61
2022/01/11 14:06:11;;;;;;;13.57;9.43;;;;;;;;;;5052034;28;20441;-61
2022/01/11 14:08:43;;;;;;;14.27;9.23;;;;;;;;;;5050446;28;20447;-61
2022/01/11 14:11:11;;;;;;;13.10;9.20;;;;;;;;;;5051729;28;20474;-61
2022/01/11 14:13:37;;;;;;;14.07;9.80;;;;;;;;;;5051850;28;20439;-63
2022/01/11 14:16:10;;;;;;;12.97;9.40;;;;;;;;;;5051962;28;20441;-61
2022/01/11 14:18:38;;;;;;;11.73;10.37;;;;;;;;;;5051801;28;20196;-61
2022/01/11 14:21:06;;;;;;;11.83;9.83;;;;;;;;;;5051574;28;21000;-61
2022/01/11 14:23:34;;;;;;;12.03;9.73;;;;;;;;;;5051841;28;20489;-61
2022/01/11 14:26:00;;;;;;;13.00;10.13;;;;;;;;;;5051549;28;20438;-61
2022/01/11 14:28:27;;;;;;;13.93;10.23;;;;;;;;;;5051835;28;20486;-61